KMEI/MEI METAR and TAF weather

Enter ICAO airport designator
Station Type Date Time Source
KMEI METAR 2020/10/29 16:58 UTC NOAA

KMEI 291658Z 27012G23KT 10SM CLR 16/07 A2985 RMK AO2 SLP103 T01610072 $


Station Type Date Time Source
KMEI Decoded METAR 2020/10/29 16:58 UTC NOAA

MERIDIAN KEY FIELD, MS, United States (KMEI) 32-20N 088-45W 89M
Oct 29, 2020 - 12:58 PM EDT / 2020.10.29 1658 UTC
Wind: from the W (270 degrees) at 14 MPH (12 KT) gusting to 26 MPH (23 KT):0
Visibility: 10 mile(s):0
Sky conditions: clear
Temperature: 61.0 F (16.1 C)
Dew Point: 45.0 F (7.2 C)
Relative Humidity: 55%
Pressure (altimeter): 29.85 in. Hg (1010 hPa)
ob: KMEI 291658Z 27012G23KT 10SM CLR 16/07 A2985 RMK AO2 SLP103 T01610072
cycle: 17

Station Type Date Time Source
KMEI TAF 2020/10/29 18:21 UTC NOAA

KMEI 291720Z 2918/3018 23010G19KT P6SM BKN019 OVC024
FM300300 34012KT P6SM OVC015
FM301300 35009KT P6SM SKC

Example: see airport list